TMT Airport (Austin) Information

FAA: TMT - ICAO: KTMT

TMT Airport Location

State Nevada
County Lander
City Austin
TMT Airport is 4 miles southwest of Austin, NV.
Latitude 39-28-04.5960N
Longitude 117-11-50.8340W
Elevation 5,735ft

KTMT Airport METARs

METAR KTMT 060830Z AUTO 15003KT 10SM CLR M10/M15 A3032 RMK AO2 T11001150
Altimeter 30.32"
Temperature -10.0°C (14.0°F)
Wind 150° at 3KT
Clouds Skies are clear.
Visibility 10.0mi
Time observed: 2021-12-06T08:30:00Z

TMT Airport Details

Status Operational
Activation February 1943
Ownership Public
Usage Public
Chart LAS VEGAS
ATC on-site No
Beacon schedule sunset-sunrise
Beacon color clear green

TMT Airport Contacts

Owner LANDER COUNTY
Owner address 50 STATE ROUTE 305, BATTLE MOUNTAIN, NV 89820-6400
Owner phone (775) 635-2885
Manager KENNETH VOLZKE
Manager address VOLZKE CORPORATION, UTICA, NE 68456
Manager phone 402-534-3131

TMT Airport (Austin) Radio Frequencies

TMT (Airport) Radio Frequencies

UNICOM N/A
Common traffic advisory frequency (CTAF) 122.9